sensor_id;sensor_type;location;lat;lon;timestamp;P1;durP1;ratioP1;P2;durP2;ratioP2
16354;SDS011;8287;51.644;8.494;2022-12-18T00:01:56;38.20;;;35.90;;
16354;SDS011;8287;51.644;8.494;2022-12-18T00:04:24;38.15;;;35.42;;
16354;SDS011;8287;51.644;8.494;2022-12-18T00:06:54;37.95;;;35.65;;
16354;SDS011;8287;51.644;8.494;2022-12-18T00:09:20;42.40;;;39.60;;
16354;SDS011;8287;51.644;8.494;2022-12-18T00:11:47;47.40;;;44.63;;
16354;SDS011;8287;51.644;8.494;2022-12-18T00:14:14;54.60;;;51.42;;
16354;SDS011;8287;51.644;8.494;2022-12-18T00:16:42;80.03;;;75.35;;
16354;SDS011;8287;51.644;8.494;2022-12-18T00:19:11;51.95;;;48.38;;
16354;SDS011;8287;51.644;8.494;2022-12-18T00:21:38;53.05;;;49.50;;
16354;SDS011;8287;51.644;8.494;2022-12-18T00:24:07;65.07;;;61.83;;
16354;SDS011;8287;51.644;8.494;2022-12-18T00:26:34;58.75;;;55.58;;
16354;SDS011;8287;51.644;8.494;2022-12-18T00:29:03;86.95;;;82.95;;
16354;SDS011;8287;51.644;8.494;2022-12-18T00:31:32;73.68;;;69.63;;
16354;SDS011;8287;51.644;8.494;2022-12-18T00:33:59;50.08;;;47.42;;
16354;SDS011;8287;51.644;8.494;2022-12-18T00:36:26;40.25;;;37.85;;
16354;SDS011;8287;51.644;8.494;2022-12-18T00:38:55;35.83;;;34.03;;
16354;SDS011;8287;51.644;8.494;2022-12-18T00:41:25;37.50;;;35.15;;
16354;SDS011;8287;51.644;8.494;2022-12-18T00:44:10;40.10;;;37.70;;
16354;SDS011;8287;51.644;8.494;2022-12-18T00:46:39;48.95;;;46.42;;
16354;SDS011;8287;51.644;8.494;2022-12-18T00:49:06;42.08;;;40.05;;
16354;SDS011;8287;51.644;8.494;2022-12-18T00:51:32;80.85;;;77.10;;
16354;SDS011;8287;51.644;8.494;2022-12-18T00:53:59;85.78;;;80.93;;
16354;SDS011;8287;51.644;8.494;2022-12-18T00:56:27;81.47;;;77.90;;
16354;SDS011;8287;51.644;8.494;2022-12-18T00:58:53;73.10;;;69.95;;
16354;SDS011;8287;51.644;8.494;2022-12-18T01:01:20;53.88;;;51.13;;
16354;SDS011;8287;51.644;8.494;2022-12-18T01:03:47;57.90;;;54.90;;
16354;SDS011;8287;51.644;8.494;2022-12-18T01:06:14;42.70;;;40.72;;
16354;SDS011;8287;51.644;8.494;2022-12-18T01:08:41;43.10;;;41.10;;
16354;SDS011;8287;51.644;8.494;2022-12-18T01:11:08;56.63;;;54.22;;
16354;SDS011;8287;51.644;8.494;2022-12-18T01:13:37;70.65;;;67.60;;
16354;SDS011;8287;51.644;8.494;2022-12-18T01:16:04;51.70;;;49.17;;
16354;SDS011;8287;51.644;8.494;2022-12-18T01:18:31;37.60;;;35.38;;
16354;SDS011;8287;51.644;8.494;2022-12-18T01:20:58;39.38;;;36.72;;
16354;SDS011;8287;51.644;8.494;2022-12-18T01:23:26;88.50;;;84.40;;
16354;SDS011;8287;51.644;8.494;2022-12-18T01:25:52;100.72;;;96.53;;
16354;SDS011;8287;51.644;8.494;2022-12-18T01:28:19;104.18;;;99.75;;
16354;SDS011;8287;51.644;8.494;2022-12-18T01:30:47;93.80;;;89.93;;
16354;SDS011;8287;51.644;8.494;2022-12-18T01:33:13;70.63;;;67.30;;
16354;SDS011;8287;51.644;8.494;2022-12-18T01:35:40;97.63;;;93.55;;
16354;SDS011;8287;51.644;8.494;2022-12-18T01:38:07;89.38;;;85.68;;
16354;SDS011;8287;51.644;8.494;2022-12-18T01:40:34;102.63;;;98.15;;
16354;SDS011;8287;51.644;8.494;2022-12-18T01:43:01;83.10;;;79.63;;
16354;SDS011;8287;51.644;8.494;2022-12-18T01:45:28;59.30;;;56.38;;
16354;SDS011;8287;51.644;8.494;2022-12-18T01:47:59;96.57;;;92.38;;
16354;SDS011;8287;51.644;8.494;2022-12-18T01:50:29;95.78;;;91.82;;
16354;SDS011;8287;51.644;8.494;2022-12-18T01:52:59;88.43;;;84.65;;
16354;SDS011;8287;51.644;8.494;2022-12-18T01:55:31;62.38;;;59.63;;
16354;SDS011;8287;51.644;8.494;2022-12-18T01:58:01;41.55;;;39.55;;
16354;SDS011;8287;51.644;8.494;2022-12-18T02:00:28;37.85;;;36.25;;
16354;SDS011;8287;51.644;8.494;2022-12-18T02:02:55;33.88;;;32.25;;
16354;SDS011;8287;51.644;8.494;2022-12-18T02:05:26;37.75;;;35.97;;
16354;SDS011;8287;51.644;8.494;2022-12-18T02:08:14;30.25;;;28.65;;
16354;SDS011;8287;51.644;8.494;2022-12-18T02:10:47;34.90;;;33.40;;
16354;SDS011;8287;51.644;8.494;2022-12-18T02:13:20;33.35;;;31.65;;
16354;SDS011;8287;51.644;8.494;2022-12-18T02:15:55;31.60;;;30.15;;
16354;SDS011;8287;51.644;8.494;2022-12-18T02:18:28;33.42;;;31.92;;
16354;SDS011;8287;51.644;8.494;2022-12-18T02:21:03;30.38;;;28.98;;
16354;SDS011;8287;51.644;8.494;2022-12-18T02:23:46;28.90;;;27.50;;
16354;SDS011;8287;51.644;8.494;2022-12-18T02:26:20;30.70;;;29.20;;
16354;SDS011;8287;51.644;8.494;2022-12-18T02:28:53;31.05;;;29.48;;
16354;SDS011;8287;51.644;8.494;2022-12-18T02:31:23;29.33;;;27.80;;
16354;SDS011;8287;51.644;8.494;2022-12-18T02:33:52;31.85;;;30.25;;
16354;SDS011;8287;51.644;8.494;2022-12-18T02:36:22;31.63;;;29.85;;
16354;SDS011;8287;51.644;8.494;2022-12-18T02:38:50;30.48;;;28.98;;
16354;SDS011;8287;51.644;8.494;2022-12-18T02:41:19;30.67;;;29.35;;
16354;SDS011;8287;51.644;8.494;2022-12-18T02:43:48;32.47;;;30.67;;
16354;SDS011;8287;51.644;8.494;2022-12-18T02:46:26;32.17;;;30.33;;
16354;SDS011;8287;51.644;8.494;2022-12-18T02:48:57;33.13;;;31.60;;
16354;SDS011;8287;51.644;8.494;2022-12-18T02:51:33;32.65;;;31.15;;
16354;SDS011;8287;51.644;8.494;2022-12-18T02:54:10;31.58;;;29.90;;
16354;SDS011;8287;51.644;8.494;2022-12-18T02:56:49;32.25;;;30.75;;
16354;SDS011;8287;51.644;8.494;2022-12-18T02:59:21;30.10;;;28.65;;
16354;SDS011;8287;51.644;8.494;2022-12-18T03:01:54;28.60;;;27.23;;
16354;SDS011;8287;51.644;8.494;2022-12-18T03:04:25;30.92;;;29.33;;
16354;SDS011;8287;51.644;8.494;2022-12-18T03:06:55;28.25;;;26.95;;
16354;SDS011;8287;51.644;8.494;2022-12-18T03:09:27;30.02;;;28.40;;
16354;SDS011;8287;51.644;8.494;2022-12-18T03:12:00;29.50;;;28.00;;
16354;SDS011;8287;51.644;8.494;2022-12-18T03:14:48;29.95;;;28.40;;
16354;SDS011;8287;51.644;8.494;2022-12-18T03:17:19;29.65;;;28.15;;
16354;SDS011;8287;51.644;8.494;2022-12-18T03:19:48;27.88;;;26.58;;
16354;SDS011;8287;51.644;8.494;2022-12-18T03:22:17;30.23;;;27.90;;
16354;SDS011;8287;51.644;8.494;2022-12-18T03:24:45;29.92;;;28.48;;
16354;SDS011;8287;51.644;8.494;2022-12-18T03:27:17;27.83;;;26.42;;
16354;SDS011;8287;51.644;8.494;2022-12-18T03:29:47;30.92;;;29.45;;
16354;SDS011;8287;51.644;8.494;2022-12-18T03:32:19;30.10;;;28.58;;
16354;SDS011;8287;51.644;8.494;2022-12-18T03:34:51;32.13;;;30.50;;
16354;SDS011;8287;51.644;8.494;2022-12-18T03:37:22;29.27;;;27.85;;
16354;SDS011;8287;51.644;8.494;2022-12-18T03:39:48;30.30;;;28.77;;
16354;SDS011;8287;51.644;8.494;2022-12-18T03:42:17;31.63;;;30.05;;
16354;SDS011;8287;51.644;8.494;2022-12-18T03:44:53;30.65;;;28.90;;
16354;SDS011;8287;51.644;8.494;2022-12-18T03:47:25;30.27;;;28.88;;
16354;SDS011;8287;51.644;8.494;2022-12-18T03:49:56;33.40;;;31.77;;
16354;SDS011;8287;51.644;8.494;2022-12-18T03:52:26;34.75;;;32.88;;
16354;SDS011;8287;51.644;8.494;2022-12-18T03:54:56;36.60;;;34.80;;
16354;SDS011;8287;51.644;8.494;2022-12-18T03:57:27;36.22;;;34.42;;
16354;SDS011;8287;51.644;8.494;2022-12-18T03:59:57;38.42;;;36.72;;
16354;SDS011;8287;51.644;8.494;2022-12-18T04:02:27;35.45;;;33.85;;
16354;SDS011;8287;51.644;8.494;2022-12-18T04:04:56;35.08;;;33.08;;
16354;SDS011;8287;51.644;8.494;2022-12-18T04:07:26;59.25;;;56.35;;
16354;SDS011;8287;51.644;8.494;2022-12-18T04:09:53;110.68;;;105.88;;
16354;SDS011;8287;51.644;8.494;2022-12-18T04:12:24;105.10;;;100.50;;
16354;SDS011;8287;51.644;8.494;2022-12-18T04:14:52;73.00;;;69.82;;
16354;SDS011;8287;51.644;8.494;2022-12-18T04:17:19;102.78;;;98.07;;
16354;SDS011;8287;51.644;8.494;2022-12-18T04:19:46;57.97;;;55.33;;
16354;SDS011;8287;51.644;8.494;2022-12-18T04:22:13;35.53;;;33.83;;
16354;SDS011;8287;51.644;8.494;2022-12-18T04:24:39;31.00;;;29.60;;
16354;SDS011;8287;51.644;8.494;2022-12-18T04:27:06;30.42;;;28.88;;
16354;SDS011;8287;51.644;8.494;2022-12-18T04:29:33;33.70;;;31.98;;
16354;SDS011;8287;51.644;8.494;2022-12-18T04:32:01;33.72;;;32.05;;
16354;SDS011;8287;51.644;8.494;2022-12-18T04:34:27;34.42;;;32.72;;
16354;SDS011;8287;51.644;8.494;2022-12-18T04:36:54;33.28;;;31.88;;
16354;SDS011;8287;51.644;8.494;2022-12-18T04:39:20;36.47;;;34.42;;
16354;SDS011;8287;51.644;8.494;2022-12-18T04:41:47;32.08;;;30.48;;
16354;SDS011;8287;51.644;8.494;2022-12-18T04:44:14;33.60;;;32.05;;
16354;SDS011;8287;51.644;8.494;2022-12-18T04:46:41;33.83;;;32.17;;
16354;SDS011;8287;51.644;8.494;2022-12-18T04:49:10;69.90;;;66.95;;
16354;SDS011;8287;51.644;8.494;2022-12-18T04:51:37;94.13;;;90.07;;
16354;SDS011;8287;51.644;8.494;2022-12-18T04:54:06;76.47;;;73.00;;
16354;SDS011;8287;51.644;8.494;2022-12-18T04:56:33;88.72;;;84.85;;
16354;SDS011;8287;51.644;8.494;2022-12-18T04:59:00;72.50;;;68.88;;
16354;SDS011;8287;51.644;8.494;2022-12-18T05:01:27;105.40;;;100.85;;
16354;SDS011;8287;51.644;8.494;2022-12-18T05:03:54;92.13;;;87.95;;
16354;SDS011;8287;51.644;8.494;2022-12-18T05:06:22;82.78;;;78.75;;
16354;SDS011;8287;51.644;8.494;2022-12-18T05:08:48;88.30;;;84.47;;
16354;SDS011;8287;51.644;8.494;2022-12-18T05:11:15;85.65;;;81.88;;
16354;SDS011;8287;51.644;8.494;2022-12-18T05:13:42;63.08;;;60.33;;
16354;SDS011;8287;51.644;8.494;2022-12-18T05:16:09;50.55;;;48.10;;
16354;SDS011;8287;51.644;8.494;2022-12-18T05:18:36;55.05;;;52.60;;
16354;SDS011;8287;51.644;8.494;2022-12-18T05:21:03;62.63;;;59.88;;
16354;SDS011;8287;51.644;8.494;2022-12-18T05:23:32;72.30;;;69.28;;
16354;SDS011;8287;51.644;8.494;2022-12-18T05:25:59;56.60;;;53.95;;
16354;SDS011;8287;51.644;8.494;2022-12-18T05:28:28;47.90;;;45.55;;
16354;SDS011;8287;51.644;8.494;2022-12-18T05:30:56;49.22;;;46.85;;
16354;SDS011;8287;51.644;8.494;2022-12-18T05:33:25;45.60;;;43.50;;
16354;SDS011;8287;51.644;8.494;2022-12-18T05:35:53;42.30;;;40.20;;
16354;SDS011;8287;51.644;8.494;2022-12-18T05:38:21;44.97;;;42.75;;
16354;SDS011;8287;51.644;8.494;2022-12-18T05:40:50;41.40;;;39.53;;
16354;SDS011;8287;51.644;8.494;2022-12-18T05:43:18;47.35;;;45.20;;
16354;SDS011;8287;51.644;8.494;2022-12-18T05:45:46;66.55;;;63.28;;
16354;SDS011;8287;51.644;8.494;2022-12-18T05:48:13;51.50;;;48.55;;
16354;SDS011;8287;51.644;8.494;2022-12-18T05:50:41;57.88;;;54.97;;
16354;SDS011;8287;51.644;8.494;2022-12-18T05:53:10;89.50;;;85.68;;
16354;SDS011;8287;51.644;8.494;2022-12-18T05:55:38;68.20;;;65.18;;
16354;SDS011;8287;51.644;8.494;2022-12-18T05:58:09;62.03;;;59.33;;
16354;SDS011;8287;51.644;8.494;2022-12-18T06:00:37;93.65;;;89.70;;
16354;SDS011;8287;51.644;8.494;2022-12-18T06:03:05;88.47;;;84.72;;
16354;SDS011;8287;51.644;8.494;2022-12-18T06:05:34;87.50;;;83.78;;
16354;SDS011;8287;51.644;8.494;2022-12-18T06:08:01;88.95;;;85.03;;
16354;SDS011;8287;51.644;8.494;2022-12-18T06:10:28;68.90;;;66.00;;
16354;SDS011;8287;51.644;8.494;2022-12-18T06:12:54;52.53;;;50.13;;
16354;SDS011;8287;51.644;8.494;2022-12-18T06:15:22;44.38;;;42.15;;
16354;SDS011;8287;51.644;8.494;2022-12-18T06:17:49;43.20;;;41.17;;
16354;SDS011;8287;51.644;8.494;2022-12-18T06:20:16;70.03;;;66.72;;
16354;SDS011;8287;51.644;8.494;2022-12-18T06:22:42;60.47;;;57.88;;
16354;SDS011;8287;51.644;8.494;2022-12-18T06:25:09;52.92;;;50.50;;
16354;SDS011;8287;51.644;8.494;2022-12-18T06:27:36;38.17;;;36.00;;
16354;SDS011;8287;51.644;8.494;2022-12-18T06:30:03;49.80;;;47.42;;
16354;SDS011;8287;51.644;8.494;2022-12-18T06:32:31;56.30;;;53.47;;
16354;SDS011;8287;51.644;8.494;2022-12-18T06:34:58;39.65;;;37.72;;
16354;SDS011;8287;51.644;8.494;2022-12-18T06:37:24;42.78;;;40.47;;
16354;SDS011;8287;51.644;8.494;2022-12-18T06:39:51;51.85;;;49.30;;
16354;SDS011;8287;51.644;8.494;2022-12-18T06:42:18;85.40;;;80.40;;
16354;SDS011;8287;51.644;8.494;2022-12-18T06:44:48;53.70;;;50.85;;
16354;SDS011;8287;51.644;8.494;2022-12-18T06:47:15;36.08;;;33.95;;
16354;SDS011;8287;51.644;8.494;2022-12-18T06:49:44;38.45;;;36.35;;
16354;SDS011;8287;51.644;8.494;2022-12-18T06:52:11;42.95;;;40.22;;
16354;SDS011;8287;51.644;8.494;2022-12-18T06:54:39;38.17;;;35.88;;
16354;SDS011;8287;51.644;8.494;2022-12-18T06:57:06;40.63;;;38.13;;
16354;SDS011;8287;51.644;8.494;2022-12-18T06:59:33;43.55;;;40.72;;
16354;SDS011;8287;51.644;8.494;2022-12-18T07:02:00;40.10;;;37.28;;
16354;SDS011;8287;51.644;8.494;2022-12-18T07:04:28;35.30;;;33.33;;
16354;SDS011;8287;51.644;8.494;2022-12-18T07:06:56;37.63;;;35.70;;
16354;SDS011;8287;51.644;8.494;2022-12-18T07:09:23;38.88;;;36.90;;
16354;SDS011;8287;51.644;8.494;2022-12-18T07:11:50;37.00;;;35.20;;
16354;SDS011;8287;51.644;8.494;2022-12-18T07:14:16;36.67;;;34.55;;
16354;SDS011;8287;51.644;8.494;2022-12-18T07:16:43;34.88;;;33.08;;
16354;SDS011;8287;51.644;8.494;2022-12-18T07:19:09;34.97;;;32.90;;
16354;SDS011;8287;51.644;8.494;2022-12-18T07:21:36;38.05;;;35.95;;
16354;SDS011;8287;51.644;8.494;2022-12-18T07:24:05;33.38;;;31.58;;
16354;SDS011;8287;51.644;8.494;2022-12-18T07:26:32;30.60;;;28.77;;
16354;SDS011;8287;51.644;8.494;2022-12-18T07:28:59;31.92;;;29.92;;
16354;SDS011;8287;51.644;8.494;2022-12-18T07:31:26;36.50;;;34.35;;
16354;SDS011;8287;51.644;8.494;2022-12-18T07:33:53;42.60;;;40.30;;
16354;SDS011;8287;51.644;8.494;2022-12-18T07:36:19;31.48;;;29.45;;
16354;SDS011;8287;51.644;8.494;2022-12-18T07:38:46;32.92;;;31.05;;
16354;SDS011;8287;51.644;8.494;2022-12-18T07:41:15;34.75;;;32.78;;
16354;SDS011;8287;51.644;8.494;2022-12-18T07:43:43;31.95;;;30.40;;
16354;SDS011;8287;51.644;8.494;2022-12-18T07:46:10;35.85;;;33.83;;
16354;SDS011;8287;51.644;8.494;2022-12-18T07:48:38;33.58;;;31.70;;
16354;SDS011;8287;51.644;8.494;2022-12-18T07:51:05;37.72;;;35.67;;
16354;SDS011;8287;51.644;8.494;2022-12-18T07:53:33;36.03;;;33.83;;
16354;SDS011;8287;51.644;8.494;2022-12-18T07:56:02;33.47;;;31.75;;
16354;SDS011;8287;51.644;8.494;2022-12-18T07:58:33;35.13;;;33.22;;
16354;SDS011;8287;51.644;8.494;2022-12-18T08:01:04;35.15;;;33.25;;
16354;SDS011;8287;51.644;8.494;2022-12-18T08:03:31;36.35;;;34.55;;
16354;SDS011;8287;51.644;8.494;2022-12-18T08:05:58;38.10;;;35.20;;
16354;SDS011;8287;51.644;8.494;2022-12-18T08:08:26;40.95;;;38.15;;
16354;SDS011;8287;51.644;8.494;2022-12-18T08:10:53;39.83;;;36.75;;
16354;SDS011;8287;51.644;8.494;2022-12-18T08:13:19;38.88;;;36.20;;
16354;SDS011;8287;51.644;8.494;2022-12-18T08:15:48;39.33;;;36.22;;
16354;SDS011;8287;51.644;8.494;2022-12-18T08:18:22;43.50;;;40.67;;
16354;SDS011;8287;51.644;8.494;2022-12-18T08:20:48;38.78;;;36.47;;
16354;SDS011;8287;51.644;8.494;2022-12-18T08:23:15;41.42;;;38.47;;
16354;SDS011;8287;51.644;8.494;2022-12-18T08:25:42;41.72;;;38.92;;
16354;SDS011;8287;51.644;8.494;2022-12-18T08:28:10;40.63;;;37.67;;
16354;SDS011;8287;51.644;8.494;2022-12-18T08:30:37;46.40;;;42.97;;
16354;SDS011;8287;51.644;8.494;2022-12-18T08:33:05;43.95;;;40.47;;
16354;SDS011;8287;51.644;8.494;2022-12-18T08:35:34;39.83;;;37.38;;
16354;SDS011;8287;51.644;8.494;2022-12-18T08:38:01;43.03;;;40.22;;
16354;SDS011;8287;51.644;8.494;2022-12-18T08:40:27;40.13;;;37.65;;
16354;SDS011;8287;51.644;8.494;2022-12-18T08:42:54;39.15;;;36.90;;
16354;SDS011;8287;51.644;8.494;2022-12-18T08:45:38;41.75;;;39.13;;
16354;SDS011;8287;51.644;8.494;2022-12-18T08:48:06;44.53;;;41.05;;
16354;SDS011;8287;51.644;8.494;2022-12-18T08:50:33;52.60;;;49.20;;
16354;SDS011;8287;51.644;8.494;2022-12-18T08:53:00;72.72;;;68.25;;
16354;SDS011;8287;51.644;8.494;2022-12-18T08:55:27;49.92;;;46.72;;
16354;SDS011;8287;51.644;8.494;2022-12-18T08:57:53;83.75;;;78.97;;
16354;SDS011;8287;51.644;8.494;2022-12-18T09:00:20;85.78;;;81.47;;
16354;SDS011;8287;51.644;8.494;2022-12-18T09:02:47;83.47;;;79.05;;
16354;SDS011;8287;51.644;8.494;2022-12-18T09:05:15;76.45;;;72.68;;
16354;SDS011;8287;51.644;8.494;2022-12-18T09:07:42;74.03;;;70.05;;
16354;SDS011;8287;51.644;8.494;2022-12-18T09:10:08;99.50;;;94.82;;
16354;SDS011;8287;51.644;8.494;2022-12-18T09:12:35;88.50;;;84.35;;
16354;SDS011;8287;51.644;8.494;2022-12-18T09:15:02;90.35;;;85.22;;
16354;SDS011;8287;51.644;8.494;2022-12-18T09:17:29;56.40;;;53.72;;
16354;SDS011;8287;51.644;8.494;2022-12-18T09:19:55;81.80;;;77.57;;
16354;SDS011;8287;51.644;8.494;2022-12-18T09:22:23;64.28;;;61.28;;
16354;SDS011;8287;51.644;8.494;2022-12-18T09:24:50;64.93;;;61.75;;
16354;SDS011;8287;51.644;8.494;2022-12-18T09:27:16;58.20;;;55.38;;
16354;SDS011;8287;51.644;8.494;2022-12-18T09:29:43;68.07;;;64.72;;
16354;SDS011;8287;51.644;8.494;2022-12-18T09:32:09;83.43;;;79.63;;
16354;SDS011;8287;51.644;8.494;2022-12-18T09:34:36;55.97;;;53.03;;
16354;SDS011;8287;51.644;8.494;2022-12-18T09:37:03;46.97;;;44.45;;
16354;SDS011;8287;51.644;8.494;2022-12-18T09:39:30;79.05;;;75.43;;
16354;SDS011;8287;51.644;8.494;2022-12-18T09:41:57;81.55;;;77.13;;
16354;SDS011;8287;51.644;8.494;2022-12-18T09:44:25;74.13;;;70.47;;
16354;SDS011;8287;51.644;8.494;2022-12-18T09:46:58;66.22;;;63.00;;
16354;SDS011;8287;51.644;8.494;2022-12-18T09:49:34;49.80;;;47.28;;
16354;SDS011;8287;51.644;8.494;2022-12-18T09:52:04;60.83;;;57.35;;
16354;SDS011;8287;51.644;8.494;2022-12-18T09:54:38;66.95;;;63.22;;
16354;SDS011;8287;51.644;8.494;2022-12-18T09:57:06;63.45;;;60.25;;
16354;SDS011;8287;51.644;8.494;2022-12-18T09:59:37;66.72;;;63.42;;
16354;SDS011;8287;51.644;8.494;2022-12-18T10:02:12;61.20;;;57.83;;
16354;SDS011;8287;51.644;8.494;2022-12-18T10:04:40;60.83;;;57.47;;
16354;SDS011;8287;51.644;8.494;2022-12-18T10:07:08;61.85;;;58.42;;
16354;SDS011;8287;51.644;8.494;2022-12-18T10:09:41;58.35;;;55.45;;
16354;SDS011;8287;51.644;8.494;2022-12-18T10:12:19;53.42;;;50.70;;
16354;SDS011;8287;51.644;8.494;2022-12-18T10:14:50;55.05;;;52.13;;
16354;SDS011;8287;51.644;8.494;2022-12-18T10:17:24;51.00;;;48.28;;
16354;SDS011;8287;51.644;8.494;2022-12-18T10:19:59;49.15;;;46.53;;
16354;SDS011;8287;51.644;8.494;2022-12-18T10:22:32;48.78;;;46.25;;
16354;SDS011;8287;51.644;8.494;2022-12-18T10:25:15;50.60;;;47.90;;
16354;SDS011;8287;51.644;8.494;2022-12-18T10:27:48;54.00;;;50.88;;
16354;SDS011;8287;51.644;8.494;2022-12-18T10:30:19;54.25;;;51.33;;
16354;SDS011;8287;51.644;8.494;2022-12-18T10:32:47;49.50;;;47.03;;
16354;SDS011;8287;51.644;8.494;2022-12-18T10:35:15;48.95;;;46.50;;
16354;SDS011;8287;51.644;8.494;2022-12-18T10:38:05;49.25;;;46.72;;
16354;SDS011;8287;51.644;8.494;2022-12-18T10:40:36;46.60;;;44.10;;
16354;SDS011;8287;51.644;8.494;2022-12-18T10:43:15;48.30;;;45.80;;
16354;SDS011;8287;51.644;8.494;2022-12-18T10:45:57;61.03;;;58.25;;
16354;SDS011;8287;51.644;8.494;2022-12-18T10:48:30;58.25;;;55.40;;
16354;SDS011;8287;51.644;8.494;2022-12-18T10:50:59;58.20;;;55.38;;
16354;SDS011;8287;51.644;8.494;2022-12-18T10:53:27;56.83;;;54.05;;
16354;SDS011;8287;51.644;8.494;2022-12-18T10:55:57;55.28;;;52.53;;
16354;SDS011;8287;51.644;8.494;2022-12-18T10:58:30;47.83;;;45.08;;
16354;SDS011;8287;51.644;8.494;2022-12-18T11:01:02;42.20;;;40.00;;
16354;SDS011;8287;51.644;8.494;2022-12-18T11:03:32;43.78;;;41.25;;
16354;SDS011;8287;51.644;8.494;2022-12-18T11:06:02;40.72;;;38.55;;
16354;SDS011;8287;51.644;8.494;2022-12-18T11:08:31;58.53;;;55.75;;
16354;SDS011;8287;51.644;8.494;2022-12-18T11:10:59;53.80;;;51.20;;
16354;SDS011;8287;51.644;8.494;2022-12-18T11:13:26;58.97;;;55.72;;
16354;SDS011;8287;51.644;8.494;2022-12-18T11:15:54;54.88;;;51.95;;
16354;SDS011;8287;51.644;8.494;2022-12-18T11:18:22;48.03;;;45.65;;
16354;SDS011;8287;51.644;8.494;2022-12-18T11:20:53;47.63;;;44.60;;
16354;SDS011;8287;51.644;8.494;2022-12-18T11:23:22;50.13;;;47.65;;
16354;SDS011;8287;51.644;8.494;2022-12-18T11:25:54;54.95;;;52.38;;
16354;SDS011;8287;51.644;8.494;2022-12-18T11:31:20;43.60;;;41.40;;
16354;SDS011;8287;51.644;8.494;2022-12-18T11:33:53;43.95;;;41.70;;
16354;SDS011;8287;51.644;8.494;2022-12-18T11:36:32;50.30;;;47.03;;
16354;SDS011;8287;51.644;8.494;2022-12-18T11:39:02;52.50;;;49.65;;
16354;SDS011;8287;51.644;8.494;2022-12-18T11:41:38;49.17;;;46.70;;
16354;SDS011;8287;51.644;8.494;2022-12-18T11:44:32;53.80;;;51.30;;
16354;SDS011;8287;51.644;8.494;2022-12-18T11:47:07;53.20;;;50.80;;
16354;SDS011;8287;51.644;8.494;2022-12-18T11:49:39;51.58;;;49.25;;
16354;SDS011;8287;51.644;8.494;2022-12-18T11:52:09;39.30;;;37.58;;
16354;SDS011;8287;51.644;8.494;2022-12-18T11:54:45;46.13;;;43.90;;
16354;SDS011;8287;51.644;8.494;2022-12-18T11:57:14;30.90;;;29.50;;
16354;SDS011;8287;51.644;8.494;2022-12-18T11:59:53;32.35;;;30.95;;
16354;SDS011;8287;51.644;8.494;2022-12-18T12:02:35;27.52;;;26.35;;
16354;SDS011;8287;51.644;8.494;2022-12-18T12:05:20;31.40;;;29.88;;
16354;SDS011;8287;51.644;8.494;2022-12-18T12:08:00;29.23;;;27.73;;
16354;SDS011;8287;51.644;8.494;2022-12-18T12:10:35;31.00;;;29.60;;
16354;SDS011;8287;51.644;8.494;2022-12-18T12:13:16;28.52;;;27.17;;
16354;SDS011;8287;51.644;8.494;2022-12-18T12:15:57;26.52;;;25.42;;
16354;SDS011;8287;51.644;8.494;2022-12-18T12:18:34;27.20;;;25.75;;
16354;SDS011;8287;51.644;8.494;2022-12-18T12:21:14;21.73;;;20.73;;
16354;SDS011;8287;51.644;8.494;2022-12-18T12:23:46;21.83;;;20.75;;
16354;SDS011;8287;51.644;8.494;2022-12-18T12:26:18;23.80;;;22.25;;
16354;SDS011;8287;51.644;8.494;2022-12-18T12:28:59;23.23;;;22.08;;
16354;SDS011;8287;51.644;8.494;2022-12-18T12:31:36;23.08;;;21.98;;
16354;SDS011;8287;51.644;8.494;2022-12-18T12:34:16;20.90;;;19.90;;
16354;SDS011;8287;51.644;8.494;2022-12-18T12:36:49;23.27;;;21.25;;
16354;SDS011;8287;51.644;8.494;2022-12-18T12:39:28;25.67;;;24.38;;
16354;SDS011;8287;51.644;8.494;2022-12-18T12:41:57;21.33;;;20.40;;
16354;SDS011;8287;51.644;8.494;2022-12-18T12:44:44;21.63;;;20.40;;
16354;SDS011;8287;51.644;8.494;2022-12-18T12:47:18;22.08;;;20.67;;
16354;SDS011;8287;51.644;8.494;2022-12-18T12:49:49;20.30;;;19.30;;
16354;SDS011;8287;51.644;8.494;2022-12-18T12:52:17;18.10;;;17.30;;
16354;SDS011;8287;51.644;8.494;2022-12-18T12:54:53;24.40;;;22.85;;
16354;SDS011;8287;51.644;8.494;2022-12-18T12:57:21;19.05;;;18.10;;
16354;SDS011;8287;51.644;8.494;2022-12-18T12:59:56;18.25;;;17.35;;
16354;SDS011;8287;51.644;8.494;2022-12-18T13:02:28;20.50;;;18.92;;
16354;SDS011;8287;51.644;8.494;2022-12-18T13:05:02;17.08;;;16.27;;
16354;SDS011;8287;51.644;8.494;2022-12-18T13:07:37;18.38;;;17.48;;
16354;SDS011;8287;51.644;8.494;2022-12-18T13:10:12;19.75;;;18.55;;
16354;SDS011;8287;51.644;8.494;2022-12-18T13:12:52;19.63;;;18.45;;
16354;SDS011;8287;51.644;8.494;2022-12-18T13:15:22;20.73;;;19.63;;
16354;SDS011;8287;51.644;8.494;2022-12-18T13:18:03;21.38;;;20.00;;
16354;SDS011;8287;51.644;8.494;2022-12-18T13:20:37;21.70;;;20.40;;
16354;SDS011;8287;51.644;8.494;2022-12-18T13:23:19;21.92;;;20.50;;
16354;SDS011;8287;51.644;8.494;2022-12-18T13:25:56;30.55;;;26.40;;
16354;SDS011;8287;51.644;8.494;2022-12-18T13:28:48;19.90;;;18.60;;
16354;SDS011;8287;51.644;8.494;2022-12-18T13:34:18;19.88;;;18.58;;
16354;SDS011;8287;51.644;8.494;2022-12-18T13:36:46;25.55;;;23.40;;
16354;SDS011;8287;51.644;8.494;2022-12-18T13:39:21;23.05;;;21.27;;
16354;SDS011;8287;51.644;8.494;2022-12-18T13:41:50;22.92;;;21.63;;
16354;SDS011;8287;51.644;8.494;2022-12-18T13:44:30;19.85;;;18.85;;
16354;SDS011;8287;51.644;8.494;2022-12-18T13:46:58;21.75;;;20.45;;
16354;SDS011;8287;51.644;8.494;2022-12-18T13:49:28;23.30;;;21.73;;
16354;SDS011;8287;51.644;8.494;2022-12-18T13:52:03;19.88;;;18.60;;
16354;SDS011;8287;51.644;8.494;2022-12-18T13:54:43;20.63;;;19.48;;
16354;SDS011;8287;51.644;8.494;2022-12-18T13:57:24;20.67;;;19.27;;
16354;SDS011;8287;51.644;8.494;2022-12-18T13:59:52;18.73;;;17.67;;
16354;SDS011;8287;51.644;8.494;2022-12-18T14:02:21;20.10;;;19.13;;
16354;SDS011;8287;51.644;8.494;2022-12-18T14:04:50;18.95;;;17.75;;
16354;SDS011;8287;51.644;8.494;2022-12-18T14:07:18;23.85;;;22.55;;
16354;SDS011;8287;51.644;8.494;2022-12-18T14:09:48;18.38;;;17.38;;
16354;SDS011;8287;51.644;8.494;2022-12-18T14:12:17;19.30;;;18.20;;
16354;SDS011;8287;51.644;8.494;2022-12-18T14:15:05;19.55;;;18.40;;
16354;SDS011;8287;51.644;8.494;2022-12-18T14:17:39;19.27;;;18.23;;
16354;SDS011;8287;51.644;8.494;2022-12-18T14:20:13;18.02;;;17.02;;
16354;SDS011;8287;51.644;8.494;2022-12-18T14:22:42;19.73;;;18.55;;
16354;SDS011;8287;51.644;8.494;2022-12-18T14:25:14;19.27;;;18.13;;
16354;SDS011;8287;51.644;8.494;2022-12-18T14:27:44;19.25;;;18.20;;
16354;SDS011;8287;51.644;8.494;2022-12-18T14:33:02;19.45;;;18.25;;
16354;SDS011;8287;51.644;8.494;2022-12-18T14:35:31;22.10;;;20.70;;
16354;SDS011;8287;51.644;8.494;2022-12-18T14:38:15;19.55;;;18.40;;
16354;SDS011;8287;51.644;8.494;2022-12-18T14:40:46;20.95;;;19.85;;
16354;SDS011;8287;51.644;8.494;2022-12-18T14:43:13;21.38;;;20.23;;
16354;SDS011;8287;51.644;8.494;2022-12-18T14:45:40;20.42;;;18.70;;
16354;SDS011;8287;51.644;8.494;2022-12-18T14:48:09;19.45;;;18.27;;
16354;SDS011;8287;51.644;8.494;2022-12-18T14:50:41;20.88;;;19.55;;
16354;SDS011;8287;51.644;8.494;2022-12-18T14:53:18;19.92;;;18.38;;
16354;SDS011;8287;51.644;8.494;2022-12-18T14:55:46;22.42;;;20.92;;
16354;SDS011;8287;51.644;8.494;2022-12-18T14:58:15;21.90;;;20.38;;
16354;SDS011;8287;51.644;8.494;2022-12-18T15:00:43;24.85;;;23.25;;